createdAt,value
2022-08-05T00:00:33.354Z,27.06
2022-08-05T00:03:48.956Z,27.44
2022-08-05T00:06:51.919Z,27.30
2022-08-05T00:09:53.565Z,27.24
2022-08-05T00:12:57.079Z,26.97
2022-08-05T00:16:00.257Z,27.10
2022-08-05T00:19:02.054Z,27.38
2022-08-05T00:22:04.528Z,26.88
2022-08-05T00:25:08.429Z,27.37
2022-08-05T00:28:15.550Z,27.13
2022-08-05T00:31:53.986Z,27.15
2022-08-05T00:35:04.654Z,26.43
2022-08-05T00:38:09.441Z,26.43
2022-08-05T00:41:11.762Z,26.99
2022-08-05T00:44:13.734Z,26.72
2022-08-05T00:47:16.421Z,26.58
2022-08-05T00:50:18.050Z,26.52
2022-08-05T00:54:00.133Z,26.40
2022-08-05T00:56:51.262Z,26.21
2022-08-05T00:59:53.783Z,26.71
2022-08-05T01:02:57.144Z,26.56
2022-08-05T01:05:58.766Z,26.12
2022-08-05T01:09:00.541Z,25.80
2022-08-05T01:12:18.855Z,26.24
2022-08-05T01:15:36.424Z,26.09
2022-08-05T01:18:42.580Z,25.72
2022-08-05T01:21:54.735Z,26.00
2022-08-05T01:25:19.750Z,25.80
2022-08-05T01:28:46.426Z,25.66
2022-08-05T01:31:52.682Z,25.81
2022-08-05T01:35:00.662Z,25.88
2022-08-05T01:38:04.346Z,25.79
2022-08-05T01:41:07.777Z,25.88
2022-08-05T01:44:11.185Z,25.80
2022-08-05T01:47:19.717Z,26.20
2022-08-05T01:50:32.669Z,26.24
2022-08-05T01:53:57.643Z,26.05
2022-08-05T01:58:12.975Z,25.86
2022-08-05T02:00:21.003Z,26.08
2022-08-05T02:03:36.209Z,26.24
2022-08-05T02:06:39.477Z,26.45
2022-08-05T02:09:41.153Z,25.99
2022-08-05T02:12:56.394Z,26.01
2022-08-05T02:16:04.640Z,25.68
2022-08-05T02:19:16.027Z,25.49
2022-08-05T02:22:30.893Z,25.79
2022-08-05T02:25:49.246Z,25.80
2022-08-05T02:28:54.675Z,25.91
2022-08-05T02:32:00.688Z,26.17
2022-08-05T02:35:14.179Z,26.06
2022-08-05T02:38:19.272Z,25.51
2022-08-05T02:41:23.768Z,25.39
2022-08-05T02:44:34.155Z,25.56
2022-08-05T02:48:06.791Z,25.98
2022-08-05T02:51:02.972Z,25.93
2022-08-05T02:54:06.093Z,25.87
2022-08-05T02:58:20.175Z,25.63
2022-08-05T03:00:41.127Z,25.36
2022-08-05T03:04:08.897Z,25.47
2022-08-05T03:07:17.551Z,25.77
2022-08-05T03:10:36.339Z,25.87
2022-08-05T03:13:51.768Z,26.18
2022-08-05T03:17:00.675Z,26.16
2022-08-05T03:20:02.435Z,26.25
2022-08-05T03:23:08.068Z,26.13
2022-08-05T03:26:31.391Z,26.28
2022-08-05T03:29:44.813Z,25.95
2022-08-05T03:32:55.327Z,25.75
2022-08-05T03:35:58.162Z,25.81
2022-08-05T03:39:07.478Z,25.67
2022-08-05T03:42:09.506Z,25.71
2022-08-05T03:45:22.677Z,25.73
2022-08-05T03:48:29.241Z,25.18
2022-08-05T03:52:39.424Z,25.13
2022-08-05T03:56:05.845Z,25.26
2022-08-05T03:58:31.395Z,25.68
2022-08-05T04:01:37.600Z,25.74
2022-08-05T04:04:40.931Z,25.79
2022-08-05T04:07:57.563Z,25.34
2022-08-05T04:11:02.375Z,25.95
2022-08-05T04:14:04.854Z,25.88
2022-08-05T04:17:09.039Z,25.51
2022-08-05T04:20:21.636Z,25.57
2022-08-05T04:24:00.266Z,25.95
2022-08-05T04:26:47.867Z,25.36
2022-08-05T04:29:49.352Z,25.76
2022-08-05T04:32:50.902Z,26.22
2022-08-05T04:36:11.161Z,26.39
2022-08-05T04:39:14.045Z,26.41
2022-08-05T04:42:15.548Z,26.63
2022-08-05T04:45:31.135Z,26.54
2022-08-05T04:48:38.769Z,26.51
2022-08-05T04:51:44.284Z,26.40
2022-08-05T04:54:45.844Z,26.20
2022-08-05T04:57:53.772Z,26.33
2022-08-05T05:00:55.958Z,26.23
2022-08-05T05:03:57.473Z,26.43
2022-08-05T05:06:58.948Z,26.50
2022-08-05T05:10:04.468Z,26.48
2022-08-05T05:13:06.079Z,26.40
2022-08-05T05:16:08.023Z,26.54
2022-08-05T05:19:19.355Z,26.64
2022-08-05T05:22:26.441Z,26.35
2022-08-05T05:25:32.704Z,26.42
2022-08-05T05:28:42.789Z,26.22
2022-08-05T05:31:46.689Z,26.37
2022-08-05T05:34:48.198Z,26.42
2022-08-05T05:38:02.145Z,26.34
2022-08-05T05:41:03.963Z,26.37
2022-08-05T05:44:27.008Z,26.48
2022-08-05T05:48:06.140Z,26.58
2022-08-05T05:50:52.977Z,25.85
2022-08-05T05:53:58.873Z,26.00
2022-08-05T05:57:01.204Z,26.36
2022-08-05T06:00:10.221Z,26.43
2022-08-05T06:03:39.803Z,26.03
2022-08-05T06:06:36.861Z,25.91
2022-08-05T06:10:01.440Z,25.79
2022-08-05T06:13:05.244Z,25.44
2022-08-05T06:16:29.706Z,25.37
2022-08-05T06:19:34.487Z,25.40
2022-08-05T06:22:37.487Z,25.66
2022-08-05T06:26:12.789Z,26.04
2022-08-05T06:29:06.455Z,26.11
2022-08-05T06:32:28.900Z,26.08
2022-08-05T06:36:07.252Z,26.14
2022-08-05T06:38:54.666Z,26.66
2022-08-05T06:41:58.899Z,26.76
2022-08-05T06:45:05.472Z,26.73
2022-08-05T06:48:36.208Z,27.16
2022-08-05T06:51:31.808Z,26.98
2022-08-05T06:54:33.376Z,26.72
2022-08-05T06:58:02.677Z,26.63
2022-08-05T07:01:03.278Z,26.65
2022-08-05T07:04:04.779Z,26.26
2022-08-05T07:07:07.917Z,26.38
2022-08-05T07:10:10.436Z,26.94
2022-08-05T07:13:57.201Z,27.25
2022-08-05T07:18:08.487Z,27.00
2022-08-05T07:20:33.510Z,27.24
2022-08-05T07:23:37.377Z,27.28
2022-08-05T07:26:52.078Z,27.24
2022-08-05T07:30:25.574Z,27.46
2022-08-05T07:33:16.850Z,27.33
2022-08-05T07:36:20.595Z,27.62
2022-08-05T07:39:24.873Z,27.79
2022-08-05T07:42:44.748Z,27.66
2022-08-05T07:45:57.014Z,27.73
2022-08-05T07:49:05.430Z,27.90
2022-08-05T07:52:07.824Z,27.90
2022-08-05T07:55:44.633Z,28.03
2022-08-05T07:58:57.179Z,27.61
2022-08-05T08:01:57.656Z,27.97
2022-08-05T08:05:00.429Z,28.24
2022-08-05T08:08:02.053Z,28.48
2022-08-05T08:11:03.444Z,28.34
2022-08-05T08:14:10.296Z,28.92
2022-08-05T08:17:19.668Z,29.08
2022-08-05T08:20:43.944Z,29.41
2022-08-05T08:24:01.409Z,28.97
2022-08-05T08:27:07.585Z,29.21
2022-08-05T08:30:30.111Z,29.78
2022-08-05T08:33:35.950Z,29.92
2022-08-05T08:36:47.703Z,30.58
2022-08-05T08:39:54.150Z,30.70
2022-08-05T08:42:56.821Z,30.74
2022-08-05T08:45:59.899Z,30.75
2022-08-05T08:50:12.881Z,30.52
2022-08-05T08:52:32.058Z,30.23
2022-08-05T08:56:04.643Z,30.93
2022-08-05T08:58:59.308Z,30.78
2022-08-05T09:02:08.598Z,31.21
2022-08-05T09:05:17.493Z,31.38
2022-08-05T09:08:20.111Z,31.04
2022-08-05T09:11:52.170Z,31.20
2022-08-05T09:14:57.859Z,31.36
2022-08-05T09:18:01.433Z,31.27
2022-08-05T09:21:05.615Z,31.22
2022-08-05T09:24:13.558Z,30.72
2022-08-05T09:28:03.799Z,31.20
2022-08-05T09:31:00.919Z,31.20
2022-08-05T09:34:19.649Z,30.59
2022-08-05T09:38:17.302Z,30.61
2022-08-05T09:40:53.564Z,30.96
2022-08-05T09:43:55.588Z,31.66
2022-08-05T09:47:12.715Z,31.79
2022-08-05T09:50:38.089Z,31.36
2022-08-05T09:53:53.633Z,31.88
2022-08-05T09:56:57.818Z,31.94
2022-08-05T10:00:13.205Z,32.19
2022-08-05T10:03:15.602Z,32.62
2022-08-05T10:06:20.746Z,32.61
2022-08-05T10:09:27.523Z,32.16
2022-08-05T10:12:33.785Z,32.12
2022-08-05T10:15:41.429Z,31.85
2022-08-05T10:18:43.560Z,31.17
2022-08-05T10:21:50.651Z,31.82
2022-08-05T10:24:52.576Z,31.09
2022-08-05T10:28:13.080Z,31.77
2022-08-05T10:32:53.046Z,31.39
2022-08-05T10:34:40.874Z,31.79
2022-08-05T10:37:45.029Z,31.38
2022-08-05T10:40:49.857Z,32.16
2022-08-05T10:43:59.528Z,32.21
2022-08-05T10:47:26.506Z,32.97
2022-08-05T10:50:37.037Z,32.93
2022-08-05T10:53:45.377Z,32.79
2022-08-05T10:56:52.810Z,33.01
2022-08-05T11:00:13.376Z,33.21
2022-08-05T11:03:23.162Z,33.65
2022-08-05T11:06:31.166Z,34.03
2022-08-05T11:09:51.583Z,34.37
2022-08-05T11:13:06.831Z,33.93
2022-08-05T11:16:33.786Z,33.25
2022-08-05T11:20:17.309Z,33.12
2022-08-05T11:24:04.679Z,33.23
2022-08-05T11:27:29.240Z,33.98
2022-08-05T11:30:58.324Z,34.10
2022-08-05T11:34:02.476Z,34.41
2022-08-05T11:37:55.156Z,34.55
2022-08-05T11:41:00.791Z,34.32
2022-08-05T11:44:12.774Z,33.46
2022-08-05T11:47:48.611Z,34.09
2022-08-05T11:50:59.984Z,34.12
2022-08-05T11:54:01.868Z,33.68
2022-08-05T11:57:07.557Z,34.04
2022-08-05T12:00:27.650Z,34.39
2022-08-05T12:03:31.931Z,34.67
2022-08-05T12:06:35.654Z,34.79
2022-08-05T12:09:53.138Z,34.41
2022-08-05T12:13:03.034Z,34.66
2022-08-05T12:16:15.518Z,34.28
2022-08-05T12:20:17.189Z,35.11
2022-08-05T12:22:39.838Z,35.57
2022-08-05T12:25:50.601Z,35.04
2022-08-05T12:28:52.587Z,33.85
2022-08-05T12:31:57.065Z,34.34
2022-08-05T12:34:58.767Z,34.11
2022-08-05T12:38:07.168Z,34.47
2022-08-05T12:41:14.176Z,34.17
2022-08-05T12:44:28.432Z,33.97
2022-08-05T12:47:35.580Z,33.29
2022-08-05T12:50:37.078Z,33.39
2022-08-05T12:53:47.442Z,33.02
2022-08-05T12:56:59.719Z,32.89
2022-08-05T13:01:58.424Z,32.88
2022-08-05T13:03:24.327Z,32.75
2022-08-05T13:06:33.890Z,32.94
2022-08-05T13:09:35.374Z,32.90
2022-08-05T13:12:42.505Z,32.42
2022-08-05T13:15:54.434Z,32.06
2022-08-05T13:18:58.475Z,32.52
2022-08-05T13:22:00.524Z,33.27
2022-08-05T13:25:19.456Z,32.71
2022-08-05T13:28:23.428Z,32.10
2022-08-05T13:32:02.786Z,31.66
2022-08-05T13:34:47.844Z,31.90
2022-08-05T13:37:55.493Z,31.75
2022-08-05T13:40:57.506Z,31.83
2022-08-05T13:43:59.251Z,31.57
2022-08-05T13:47:05.186Z,31.97
2022-08-05T13:50:16.237Z,31.82
2022-08-05T13:53:18.372Z,32.12
2022-08-05T13:56:20.269Z,32.02
2022-08-05T13:59:27.345Z,31.78
2022-08-05T14:02:32.067Z,31.93
2022-08-05T14:06:04.635Z,31.94
2022-08-05T14:08:56.135Z,29.79
2022-08-05T14:12:17.215Z,29.87
2022-08-05T14:16:08.520Z,29.79
2022-08-05T14:18:41.529Z,29.46
2022-08-05T14:22:09.278Z,29.79
2022-08-05T14:25:06.130Z,28.95
2022-08-05T14:28:26.175Z,29.59
2022-08-05T14:31:54.584Z,29.13
2022-08-05T14:34:50.101Z,29.40
2022-08-05T14:37:55.414Z,29.13
2022-08-05T14:40:57.251Z,28.79
2022-08-05T14:44:09.443Z,28.84
2022-08-05T14:47:11.654Z,29.41
2022-08-05T14:50:18.224Z,29.67
2022-08-05T14:53:20.719Z,30.01
2022-08-05T14:56:23.399Z,29.62
2022-08-05T14:59:29.497Z,28.49
2022-08-05T15:02:36.811Z,29.49
2022-08-05T15:06:07.341Z,29.11
2022-08-05T15:09:03.825Z,28.53
2022-08-05T15:12:06.078Z,28.85
2022-08-05T15:15:15.399Z,29.34
2022-08-05T15:18:17.447Z,28.09
2022-08-05T15:21:21.163Z,28.03
2022-08-05T15:24:22.725Z,28.33
2022-08-05T15:27:25.431Z,28.50
2022-08-05T15:30:28.622Z,29.06
2022-08-05T15:34:18.892Z,29.16
2022-08-05T15:36:51.685Z,28.98
2022-08-05T15:41:03.538Z,29.22
2022-08-05T15:43:20.081Z,28.90
2022-08-05T15:46:24.388Z,28.65
2022-08-05T15:49:48.048Z,28.69
2022-08-05T15:52:53.912Z,29.11
2022-08-05T15:56:03.377Z,28.95
2022-08-05T15:59:05.907Z,28.62
2022-08-05T16:02:09.444Z,29.38
2022-08-05T16:05:16.041Z,29.05
2022-08-05T16:08:17.413Z,28.62
2022-08-05T16:11:39.904Z,28.31
2022-08-05T16:14:43.636Z,28.09
2022-08-05T16:17:46.767Z,28.23
2022-08-05T16:21:01.209Z,28.83
2022-08-05T16:24:06.341Z,28.57
2022-08-05T16:27:15.884Z,28.65
2022-08-05T16:30:25.468Z,28.75
2022-08-05T16:33:32.016Z,28.68
2022-08-05T16:36:43.689Z,28.43
2022-08-05T16:40:06.476Z,28.82
2022-08-05T16:43:07.055Z,28.24
2022-08-05T16:46:23.407Z,28.55
2022-08-05T16:49:26.497Z,28.43
2022-08-05T16:52:33.661Z,28.44
2022-08-05T16:55:46.874Z,27.97
2022-08-05T16:58:48.899Z,27.83
2022-08-05T17:01:56.171Z,27.86
2022-08-05T17:04:58.035Z,28.37
2022-08-05T17:07:59.906Z,28.24
2022-08-05T17:11:01.996Z,28.16
2022-08-05T17:14:06.335Z,28.02
2022-08-05T17:17:14.472Z,28.03
2022-08-05T17:20:17.005Z,28.31
2022-08-05T17:24:03.581Z,28.27
2022-08-05T17:26:40.959Z,28.33
2022-08-05T17:29:42.728Z,28.21
2022-08-05T17:32:44.616Z,28.27
2022-08-05T17:36:07.769Z,28.25
2022-08-05T17:39:24.176Z,28.71
2022-08-05T17:42:32.328Z,28.51
2022-08-05T17:45:38.781Z,28.36
2022-08-05T17:48:40.409Z,28.19
2022-08-05T17:51:46.570Z,28.29
2022-08-05T17:54:52.005Z,28.34
2022-08-05T17:57:54.264Z,28.44
2022-08-05T18:00:55.789Z,28.39
2022-08-05T18:04:04.038Z,28.37
2022-08-05T18:07:07.120Z,28.54
2022-08-05T18:10:21.010Z,28.78
2022-08-05T18:13:23.134Z,28.53
2022-08-05T18:16:27.371Z,28.02
2022-08-05T18:19:28.948Z,28.24
2022-08-05T18:22:46.154Z,28.21
2022-08-05T18:25:57.450Z,28.48
2022-08-05T18:29:01.046Z,28.48
2022-08-05T18:32:03.023Z,28.37
2022-08-05T18:35:05.103Z,27.90
2022-08-05T18:38:07.675Z,28.00
2022-08-05T18:41:57.397Z,27.71
2022-08-05T18:44:35.151Z,27.32
2022-08-05T18:47:38.023Z,27.14
2022-08-05T18:52:02.906Z,26.99
2022-08-05T18:54:20.042Z,26.81
2022-08-05T18:57:23.891Z,26.51
2022-08-05T19:00:28.884Z,26.49
2022-08-05T19:03:53.453Z,26.49
2022-08-05T19:06:53.657Z,26.32
2022-08-05T19:09:55.965Z,26.20
2022-08-05T19:12:57.745Z,26.21
2022-08-05T19:16:03.588Z,26.14
2022-08-05T19:19:06.822Z,26.38
2022-08-05T19:22:12.417Z,25.94
2022-08-05T19:25:21.587Z,25.73
2022-08-05T19:28:32.824Z,25.87
2022-08-05T19:31:34.579Z,25.83
2022-08-05T19:34:55.160Z,25.95
2022-08-05T19:38:05.902Z,26.03
2022-08-05T19:41:10.095Z,25.57
2022-08-05T19:44:13.163Z,25.77
2022-08-05T19:47:16.365Z,25.68
2022-08-05T19:50:19.930Z,25.46
2022-08-05T19:54:04.726Z,25.60
2022-08-05T19:56:43.158Z,25.59
2022-08-05T20:00:00.448Z,25.45
2022-08-05T20:03:12.908Z,25.49
2022-08-05T20:06:15.980Z,25.44
2022-08-05T20:09:30.372Z,25.58
2022-08-05T20:12:51.823Z,25.37
2022-08-05T20:15:57.541Z,25.39
2022-08-05T20:18:59.312Z,25.15
2022-08-05T20:22:02.851Z,24.74
2022-08-05T20:25:04.569Z,24.94
2022-08-05T20:28:06.815Z,24.65
2022-08-05T20:31:08.739Z,24.90
2022-08-05T20:34:11.552Z,25.07
2022-08-05T20:37:24.056Z,24.88
2022-08-05T20:40:35.806Z,24.99
2022-08-05T20:43:59.736Z,25.00
2022-08-05T20:47:03.591Z,24.83
2022-08-05T20:50:07.516Z,24.98
2022-08-05T20:53:16.336Z,24.41
2022-08-05T20:56:35.434Z,24.16
2022-08-05T21:00:10.471Z,24.24
2022-08-05T21:03:08.017Z,24.29
2022-08-05T21:06:27.523Z,24.68
2022-08-05T21:09:30.709Z,24.44
2022-08-05T21:12:36.133Z,24.51
2022-08-05T21:15:37.644Z,24.33
2022-08-05T21:18:39.110Z,24.42
2022-08-05T21:21:51.046Z,24.03
2022-08-05T21:24:54.363Z,24.07
2022-08-05T21:27:56.439Z,24.36
2022-08-05T21:30:58.803Z,24.21
2022-08-05T21:34:00.273Z,24.19
2022-08-05T21:37:04.742Z,23.91
2022-08-05T21:40:07.085Z,23.94
2022-08-05T21:43:24.115Z,23.86
2022-08-05T21:46:26.706Z,23.88
2022-08-05T21:49:58.604Z,23.99
2022-08-05T21:52:51.777Z,23.73
2022-08-05T21:56:06.398Z,23.68
2022-08-05T21:59:24.014Z,23.98
2022-08-05T22:02:27.050Z,23.65
2022-08-05T22:05:28.693Z,23.70
2022-08-05T22:08:52.209Z,23.92
2022-08-05T22:11:54.661Z,24.10
2022-08-05T22:14:58.513Z,24.06
2022-08-05T22:18:01.604Z,23.62
2022-08-05T22:21:18.646Z,23.83
2022-08-05T22:24:52.061Z,23.69
2022-08-05T22:28:08.177Z,23.73
2022-08-05T22:31:14.515Z,23.66
2022-08-05T22:34:28.402Z,23.70
2022-08-05T22:37:58.036Z,23.59
2022-08-05T22:40:54.944Z,23.70
2022-08-05T22:43:59.169Z,23.92
2022-08-05T22:47:00.764Z,24.16
2022-08-05T22:50:19.663Z,24.20
2022-08-05T22:53:23.190Z,23.77
2022-08-05T22:56:30.609Z,23.85
2022-08-05T22:59:45.332Z,23.85
2022-08-05T23:02:53.184Z,23.74
2022-08-05T23:05:55.761Z,23.94
2022-08-05T23:08:57.203Z,23.75
2022-08-05T23:12:20.227Z,23.96
2022-08-05T23:15:29.475Z,23.78
2022-08-05T23:18:36.616Z,23.84
2022-08-05T23:21:43.069Z,23.79
2022-08-05T23:24:51.057Z,23.68
2022-08-05T23:27:58.036Z,23.61
2022-08-05T23:31:16.354Z,23.62
2022-08-05T23:34:24.728Z,23.83
2022-08-05T23:37:26.720Z,23.65
2022-08-05T23:40:36.009Z,23.80
2022-08-05T23:44:04.491Z,23.84
2022-08-05T23:47:02.656Z,23.81
2022-08-05T23:50:17.032Z,24.13
2022-08-05T23:53:22.258Z,24.08
2022-08-05T23:56:27.391Z,23.82
